sensor_id;sensor_type;location;lat;lon;timestamp;P1;durP1;ratioP1;P2;durP2;ratioP2
73893;SDS011;62699;50.534;12.784;2022-08-16T00:03:58;6.50;;;3.22;;
73893;SDS011;62699;50.534;12.784;2022-08-16T00:09:18;6.45;;;3.10;;
73893;SDS011;62699;50.534;12.784;2022-08-16T00:14:53;4.88;;;3.05;;
73893;SDS011;62699;50.534;12.784;2022-08-16T00:20:15;5.60;;;2.90;;
73893;SDS011;62699;50.534;12.784;2022-08-16T00:25:34;5.30;;;2.70;;
73893;SDS011;62699;50.534;12.784;2022-08-16T00:30:54;4.90;;;3.00;;
73893;SDS011;62699;50.534;12.784;2022-08-16T00:36:13;5.10;;;2.83;;
73893;SDS011;62699;50.534;12.784;2022-08-16T00:41:33;4.82;;;2.70;;
73893;SDS011;62699;50.534;12.784;2022-08-16T00:52:38;5.82;;;2.83;;
73893;SDS011;62699;50.534;12.784;2022-08-16T00:57:58;5.90;;;2.90;;
73893;SDS011;62699;50.534;12.784;2022-08-16T01:09:01;3.05;;;2.30;;
73893;SDS011;62699;50.534;12.784;2022-08-16T01:14:25;5.60;;;3.30;;
73893;SDS011;62699;50.534;12.784;2022-08-16T01:19:57;7.55;;;3.63;;
73893;SDS011;62699;50.534;12.784;2022-08-16T01:25:22;4.63;;;2.63;;
73893;SDS011;62699;50.534;12.784;2022-08-16T01:30:46;5.72;;;2.80;;
73893;SDS011;62699;50.534;12.784;2022-08-16T01:41:55;4.25;;;2.50;;
73893;SDS011;62699;50.534;12.784;2022-08-16T01:47:14;6.53;;;2.90;;
73893;SDS011;62699;50.534;12.784;2022-08-16T01:52:33;4.38;;;2.60;;
73893;SDS011;62699;50.534;12.784;2022-08-16T01:57:54;6.47;;;2.88;;
73893;SDS011;62699;50.534;12.784;2022-08-16T02:03:13;4.43;;;2.40;;
73893;SDS011;62699;50.534;12.784;2022-08-16T02:08:33;4.22;;;2.40;;
73893;SDS011;62699;50.534;12.784;2022-08-16T02:13:53;5.18;;;2.60;;
73893;SDS011;62699;50.534;12.784;2022-08-16T02:19:13;4.90;;;2.50;;
73893;SDS011;62699;50.534;12.784;2022-08-16T02:24:32;4.00;;;2.50;;
73893;SDS011;62699;50.534;12.784;2022-08-16T02:35:36;5.00;;;3.30;;
73893;SDS011;62699;50.534;12.784;2022-08-16T02:40:56;5.78;;;2.85;;
73893;SDS011;62699;50.534;12.784;2022-08-16T02:51:58;9.02;;;4.50;;
73893;SDS011;62699;50.534;12.784;2022-08-16T02:57:17;6.82;;;3.60;;
73893;SDS011;62699;50.534;12.784;2022-08-16T03:02:37;4.43;;;2.70;;
73893;SDS011;62699;50.534;12.784;2022-08-16T03:07:58;6.18;;;3.40;;
73893;SDS011;62699;50.534;12.784;2022-08-16T03:13:18;5.60;;;2.97;;
73893;SDS011;62699;50.534;12.784;2022-08-16T03:18:44;5.95;;;2.90;;
73893;SDS011;62699;50.534;12.784;2022-08-16T03:24:03;8.55;;;3.88;;
73893;SDS011;62699;50.534;12.784;2022-08-16T03:40:59;5.70;;;2.65;;
73893;SDS011;62699;50.534;12.784;2022-08-16T03:46:20;6.63;;;3.75;;
73893;SDS011;62699;50.534;12.784;2022-08-16T03:51:43;4.82;;;2.58;;
73893;SDS011;62699;50.534;12.784;2022-08-16T03:57:02;4.22;;;2.75;;
73893;SDS011;62699;50.534;12.784;2022-08-16T04:02:22;4.82;;;3.13;;
73893;SDS011;62699;50.534;12.784;2022-08-16T04:07:43;8.63;;;4.72;;
73893;SDS011;62699;50.534;12.784;2022-08-16T04:13:03;8.77;;;4.50;;
73893;SDS011;62699;50.534;12.784;2022-08-16T04:18:23;5.70;;;2.92;;
73893;SDS011;62699;50.534;12.784;2022-08-16T04:23:55;5.10;;;3.03;;
73893;SDS011;62699;50.534;12.784;2022-08-16T04:29:15;6.45;;;3.42;;
73893;SDS011;62699;50.534;12.784;2022-08-16T04:40:25;5.00;;;2.72;;
73893;SDS011;62699;50.534;12.784;2022-08-16T04:45:45;5.30;;;2.70;;
73893;SDS011;62699;50.534;12.784;2022-08-16T04:51:05;5.65;;;2.95;;
73893;SDS011;62699;50.534;12.784;2022-08-16T04:56:25;5.07;;;3.17;;
73893;SDS011;62699;50.534;12.784;2022-08-16T05:02:00;7.40;;;4.28;;
73893;SDS011;62699;50.534;12.784;2022-08-16T05:07:20;8.85;;;4.80;;
73893;SDS011;62699;50.534;12.784;2022-08-16T05:12:50;5.13;;;2.83;;
73893;SDS011;62699;50.534;12.784;2022-08-16T05:18:10;7.13;;;4.10;;
73893;SDS011;62699;50.534;12.784;2022-08-16T05:23:30;9.65;;;5.10;;
73893;SDS011;62699;50.534;12.784;2022-08-16T05:28:54;7.05;;;3.88;;
73893;SDS011;62699;50.534;12.784;2022-08-16T05:34:15;5.30;;;3.42;;
73893;SDS011;62699;50.534;12.784;2022-08-16T05:39:38;4.35;;;2.67;;
73893;SDS011;62699;50.534;12.784;2022-08-16T05:44:58;6.80;;;2.70;;
73893;SDS011;62699;50.534;12.784;2022-08-16T05:50:18;5.07;;;2.65;;
73893;SDS011;62699;50.534;12.784;2022-08-16T05:55:38;8.55;;;3.40;;
73893;SDS011;62699;50.534;12.784;2022-08-16T06:00:57;7.78;;;3.42;;
73893;SDS011;62699;50.534;12.784;2022-08-16T06:06:17;3.35;;;2.30;;
73893;SDS011;62699;50.534;12.784;2022-08-16T06:11:36;2.47;;;2.10;;
73893;SDS011;62699;50.534;12.784;2022-08-16T06:16:56;3.50;;;2.03;;
73893;SDS011;62699;50.534;12.784;2022-08-16T06:22:15;3.97;;;2.55;;
73893;SDS011;62699;50.534;12.784;2022-08-16T06:27:36;4.60;;;2.47;;
73893;SDS011;62699;50.534;12.784;2022-08-16T06:32:57;6.78;;;2.72;;
73893;SDS011;62699;50.534;12.784;2022-08-16T06:38:17;4.13;;;2.78;;
73893;SDS011;62699;50.534;12.784;2022-08-16T06:43:43;5.10;;;3.03;;
73893;SDS011;62699;50.534;12.784;2022-08-16T06:49:08;4.97;;;2.60;;
73893;SDS011;62699;50.534;12.784;2022-08-16T06:54:29;7.88;;;3.42;;
73893;SDS011;62699;50.534;12.784;2022-08-16T07:05:36;3.72;;;2.80;;
73893;SDS011;62699;50.534;12.784;2022-08-16T07:16:45;6.30;;;3.08;;
73893;SDS011;62699;50.534;12.784;2022-08-16T07:22:21;4.82;;;2.90;;
73893;SDS011;62699;50.534;12.784;2022-08-16T07:27:41;4.70;;;2.88;;
73893;SDS011;62699;50.534;12.784;2022-08-16T07:33:19;4.97;;;2.90;;
73893;SDS011;62699;50.534;12.784;2022-08-16T07:38:49;5.63;;;3.05;;
73893;SDS011;62699;50.534;12.784;2022-08-16T07:44:10;4.85;;;2.78;;
73893;SDS011;62699;50.534;12.784;2022-08-16T07:49:29;6.25;;;2.80;;
73893;SDS011;62699;50.534;12.784;2022-08-16T08:01:03;4.78;;;2.45;;
73893;SDS011;62699;50.534;12.784;2022-08-16T08:12:46;5.70;;;3.20;;
73893;SDS011;62699;50.534;12.784;2022-08-16T08:24:14;5.88;;;3.45;;
73893;SDS011;62699;50.534;12.784;2022-08-16T08:29:34;7.57;;;3.88;;
73893;SDS011;62699;50.534;12.784;2022-08-16T08:34:55;6.85;;;3.67;;
73893;SDS011;62699;50.534;12.784;2022-08-16T08:40:16;7.88;;;3.72;;
73893;SDS011;62699;50.534;12.784;2022-08-16T08:45:36;5.72;;;2.95;;
73893;SDS011;62699;50.534;12.784;2022-08-16T08:50:55;6.13;;;3.58;;
73893;SDS011;62699;50.534;12.784;2022-08-16T08:56:14;6.55;;;3.40;;
73893;SDS011;62699;50.534;12.784;2022-08-16T09:07:14;6.25;;;4.30;;
73893;SDS011;62699;50.534;12.784;2022-08-16T09:12:33;9.82;;;4.47;;
73893;SDS011;62699;50.534;12.784;2022-08-16T09:17:53;8.63;;;4.30;;
73893;SDS011;62699;50.534;12.784;2022-08-16T09:23:13;6.35;;;3.65;;
73893;SDS011;62699;50.534;12.784;2022-08-16T09:28:33;7.10;;;3.67;;
73893;SDS011;62699;50.534;12.784;2022-08-16T09:33:52;7.82;;;3.83;;
73893;SDS011;62699;50.534;12.784;2022-08-16T09:39:11;6.97;;;3.55;;
73893;SDS011;62699;50.534;12.784;2022-08-16T09:44:31;6.07;;;3.30;;
73893;SDS011;62699;50.534;12.784;2022-08-16T09:49:50;7.90;;;4.15;;
73893;SDS011;62699;50.534;12.784;2022-08-16T09:55:09;7.30;;;3.90;;
73893;SDS011;62699;50.534;12.784;2022-08-16T10:00:30;6.07;;;3.50;;
73893;SDS011;62699;50.534;12.784;2022-08-16T10:05:50;7.07;;;4.15;;
73893;SDS011;62699;50.534;12.784;2022-08-16T10:11:09;5.88;;;3.50;;
73893;SDS011;62699;50.534;12.784;2022-08-16T10:16:47;5.88;;;3.20;;
73893;SDS011;62699;50.534;12.784;2022-08-16T10:22:06;7.03;;;3.40;;
73893;SDS011;62699;50.534;12.784;2022-08-16T10:27:27;5.40;;;3.20;;
73893;SDS011;62699;50.534;12.784;2022-08-16T10:32:46;6.55;;;3.65;;
73893;SDS011;62699;50.534;12.784;2022-08-16T10:38:05;5.43;;;3.40;;
73893;SDS011;62699;50.534;12.784;2022-08-16T10:43:24;7.88;;;3.67;;
73893;SDS011;62699;50.534;12.784;2022-08-16T10:48:44;4.57;;;2.97;;
73893;SDS011;62699;50.534;12.784;2022-08-16T10:54:04;5.57;;;3.00;;
73893;SDS011;62699;50.534;12.784;2022-08-16T10:59:23;6.07;;;3.42;;
73893;SDS011;62699;50.534;12.784;2022-08-16T11:10:41;5.72;;;3.45;;
73893;SDS011;62699;50.534;12.784;2022-08-16T11:16:01;4.35;;;2.67;;
73893;SDS011;62699;50.534;12.784;2022-08-16T11:21:21;4.82;;;3.30;;
73893;SDS011;62699;50.534;12.784;2022-08-16T11:26:43;5.35;;;3.33;;
73893;SDS011;62699;50.534;12.784;2022-08-16T11:32:03;4.32;;;2.70;;
73893;SDS011;62699;50.534;12.784;2022-08-16T11:37:23;5.45;;;3.05;;
73893;SDS011;62699;50.534;12.784;2022-08-16T11:42:43;3.80;;;2.78;;
73893;SDS011;62699;50.534;12.784;2022-08-16T11:53:47;6.35;;;2.60;;
73893;SDS011;62699;50.534;12.784;2022-08-16T11:59:06;5.65;;;3.45;;
73893;SDS011;62699;50.534;12.784;2022-08-16T12:04:35;6.80;;;2.80;;
73893;SDS011;62699;50.534;12.784;2022-08-16T12:09:54;6.60;;;2.83;;
73893;SDS011;62699;50.534;12.784;2022-08-16T12:15:14;5.13;;;2.75;;
73893;SDS011;62699;50.534;12.784;2022-08-16T12:20:35;4.72;;;2.60;;
73893;SDS011;62699;50.534;12.784;2022-08-16T12:25:56;4.22;;;2.38;;
73893;SDS011;62699;50.534;12.784;2022-08-16T12:31:24;3.28;;;2.10;;
73893;SDS011;62699;50.534;12.784;2022-08-16T12:36:44;3.78;;;2.20;;
73893;SDS011;62699;50.534;12.784;2022-08-16T12:42:05;4.68;;;2.28;;
73893;SDS011;62699;50.534;12.784;2022-08-16T12:47:41;3.00;;;1.92;;
73893;SDS011;62699;50.534;12.784;2022-08-16T12:53:19;4.15;;;2.40;;
73893;SDS011;62699;50.534;12.784;2022-08-16T12:58:39;3.20;;;1.80;;
73893;SDS011;62699;50.534;12.784;2022-08-16T13:04:00;3.15;;;1.90;;
73893;SDS011;62699;50.534;12.784;2022-08-16T13:09:21;3.25;;;1.90;;
73893;SDS011;62699;50.534;12.784;2022-08-16T13:14:43;2.88;;;1.90;;
73893;SDS011;62699;50.534;12.784;2022-08-16T13:20:05;3.35;;;2.05;;
73893;SDS011;62699;50.534;12.784;2022-08-16T13:25:31;2.88;;;1.88;;
73893;SDS011;62699;50.534;12.784;2022-08-16T13:30:53;3.07;;;1.87;;
73893;SDS011;62699;50.534;12.784;2022-08-16T13:36:13;4.03;;;2.00;;
73893;SDS011;62699;50.534;12.784;2022-08-16T13:47:11;3.33;;;1.90;;
73893;SDS011;62699;50.534;12.784;2022-08-16T13:52:31;4.72;;;2.10;;
73893;SDS011;62699;50.534;12.784;2022-08-16T13:57:56;3.38;;;2.08;;
73893;SDS011;62699;50.534;12.784;2022-08-16T14:03:16;3.10;;;1.90;;
73893;SDS011;62699;50.534;12.784;2022-08-16T14:08:35;3.08;;;1.90;;
73893;SDS011;62699;50.534;12.784;2022-08-16T14:13:55;3.40;;;2.13;;
73893;SDS011;62699;50.534;12.784;2022-08-16T14:19:26;3.50;;;2.00;;
73893;SDS011;62699;50.534;12.784;2022-08-16T14:24:47;2.88;;;1.90;;
73893;SDS011;62699;50.534;12.784;2022-08-16T14:30:07;2.60;;;1.80;;
73893;SDS011;62699;50.534;12.784;2022-08-16T14:35:30;2.83;;;1.88;;
73893;SDS011;62699;50.534;12.784;2022-08-16T14:40:51;2.80;;;1.88;;
73893;SDS011;62699;50.534;12.784;2022-08-16T14:46:10;3.85;;;2.03;;
73893;SDS011;62699;50.534;12.784;2022-08-16T14:51:29;2.75;;;1.80;;
73893;SDS011;62699;50.534;12.784;2022-08-16T14:56:49;2.90;;;1.70;;
73893;SDS011;62699;50.534;12.784;2022-08-16T15:02:17;3.45;;;1.95;;
73893;SDS011;62699;50.534;12.784;2022-08-16T15:07:39;3.65;;;1.80;;
73893;SDS011;62699;50.534;12.784;2022-08-16T15:12:58;2.90;;;1.80;;
73893;SDS011;62699;50.534;12.784;2022-08-16T15:18:25;3.55;;;1.80;;
73893;SDS011;62699;50.534;12.784;2022-08-16T15:23:44;3.33;;;1.85;;
73893;SDS011;62699;50.534;12.784;2022-08-16T15:29:03;4.28;;;1.90;;
73893;SDS011;62699;50.534;12.784;2022-08-16T15:34:30;3.40;;;1.88;;
73893;SDS011;62699;50.534;12.784;2022-08-16T15:39:51;2.60;;;1.90;;
73893;SDS011;62699;50.534;12.784;2022-08-16T15:45:10;2.22;;;1.80;;
73893;SDS011;62699;50.534;12.784;2022-08-16T15:56:25;2.65;;;1.98;;
73893;SDS011;62699;50.534;12.784;2022-08-16T16:01:45;1.70;;;1.55;;
73893;SDS011;62699;50.534;12.784;2022-08-16T16:07:03;3.60;;;1.90;;
73893;SDS011;62699;50.534;12.784;2022-08-16T16:12:24;2.75;;;1.92;;
73893;SDS011;62699;50.534;12.784;2022-08-16T16:17:44;6.47;;;2.50;;
73893;SDS011;62699;50.534;12.784;2022-08-16T16:29:14;3.30;;;1.98;;
73893;SDS011;62699;50.534;12.784;2022-08-16T16:34:33;6.47;;;2.38;;
73893;SDS011;62699;50.534;12.784;2022-08-16T16:39:59;4.30;;;2.10;;
73893;SDS011;62699;50.534;12.784;2022-08-16T16:45:19;6.18;;;2.55;;
73893;SDS011;62699;50.534;12.784;2022-08-16T16:50:39;5.60;;;2.33;;
73893;SDS011;62699;50.534;12.784;2022-08-16T16:56:07;3.95;;;2.10;;
73893;SDS011;62699;50.534;12.784;2022-08-16T17:01:29;3.45;;;2.05;;
73893;SDS011;62699;50.534;12.784;2022-08-16T17:06:52;4.75;;;2.33;;
73893;SDS011;62699;50.534;12.784;2022-08-16T17:12:11;3.60;;;2.28;;
73893;SDS011;62699;50.534;12.784;2022-08-16T17:17:41;3.75;;;2.20;;
73893;SDS011;62699;50.534;12.784;2022-08-16T17:23:00;4.10;;;2.17;;
73893;SDS011;62699;50.534;12.784;2022-08-16T17:28:20;4.55;;;2.17;;
73893;SDS011;62699;50.534;12.784;2022-08-16T17:33:41;4.65;;;2.95;;
73893;SDS011;62699;50.534;12.784;2022-08-16T17:39:03;5.82;;;2.30;;
73893;SDS011;62699;50.534;12.784;2022-08-16T17:44:25;3.55;;;2.33;;
73893;SDS011;62699;50.534;12.784;2022-08-16T17:49:45;5.57;;;2.78;;
73893;SDS011;62699;50.534;12.784;2022-08-16T17:55:05;3.03;;;2.17;;
73893;SDS011;62699;50.534;12.784;2022-08-16T18:06:48;4.53;;;2.65;;
73893;SDS011;62699;50.534;12.784;2022-08-16T18:12:13;5.60;;;3.15;;
73893;SDS011;62699;50.534;12.784;2022-08-16T18:17:34;4.10;;;2.35;;
73893;SDS011;62699;50.534;12.784;2022-08-16T18:23:03;5.10;;;2.40;;
73893;SDS011;62699;50.534;12.784;2022-08-16T18:28:24;4.57;;;3.00;;
73893;SDS011;62699;50.534;12.784;2022-08-16T18:33:45;4.78;;;2.55;;
73893;SDS011;62699;50.534;12.784;2022-08-16T18:44:58;5.40;;;3.08;;
73893;SDS011;62699;50.534;12.784;2022-08-16T18:50:17;6.40;;;3.80;;
73893;SDS011;62699;50.534;12.784;2022-08-16T18:55:37;5.55;;;2.80;;
73893;SDS011;62699;50.534;12.784;2022-08-16T19:00:56;5.97;;;2.92;;
73893;SDS011;62699;50.534;12.784;2022-08-16T19:06:16;6.90;;;3.30;;
73893;SDS011;62699;50.534;12.784;2022-08-16T19:11:35;5.50;;;2.75;;
73893;SDS011;62699;50.534;12.784;2022-08-16T19:17:00;6.05;;;3.53;;
73893;SDS011;62699;50.534;12.784;2022-08-16T19:22:25;5.28;;;3.17;;
73893;SDS011;62699;50.534;12.784;2022-08-16T19:27:46;5.43;;;2.53;;
73893;SDS011;62699;50.534;12.784;2022-08-16T19:33:09;6.32;;;3.80;;
73893;SDS011;62699;50.534;12.784;2022-08-16T19:38:28;7.05;;;3.60;;
73893;SDS011;62699;50.534;12.784;2022-08-16T19:43:47;6.22;;;3.30;;
73893;SDS011;62699;50.534;12.784;2022-08-16T19:49:07;5.78;;;3.53;;
73893;SDS011;62699;50.534;12.784;2022-08-16T19:54:28;6.47;;;2.70;;
73893;SDS011;62699;50.534;12.784;2022-08-16T19:59:48;6.68;;;4.00;;
73893;SDS011;62699;50.534;12.784;2022-08-16T20:05:07;4.75;;;2.83;;
73893;SDS011;62699;50.534;12.784;2022-08-16T20:10:27;6.32;;;3.13;;
73893;SDS011;62699;50.534;12.784;2022-08-16T20:15:48;5.97;;;3.22;;
73893;SDS011;62699;50.534;12.784;2022-08-16T20:21:08;5.28;;;3.05;;
73893;SDS011;62699;50.534;12.784;2022-08-16T20:26:27;5.45;;;2.97;;
73893;SDS011;62699;50.534;12.784;2022-08-16T20:31:47;4.93;;;2.80;;
73893;SDS011;62699;50.534;12.784;2022-08-16T20:37:07;5.85;;;3.33;;
73893;SDS011;62699;50.534;12.784;2022-08-16T20:42:30;6.03;;;3.78;;
73893;SDS011;62699;50.534;12.784;2022-08-16T20:47:49;5.13;;;3.22;;
73893;SDS011;62699;50.534;12.784;2022-08-16T20:53:09;5.32;;;3.17;;
73893;SDS011;62699;50.534;12.784;2022-08-16T20:58:30;7.35;;;3.35;;
73893;SDS011;62699;50.534;12.784;2022-08-16T21:03:50;5.25;;;2.90;;
73893;SDS011;62699;50.534;12.784;2022-08-16T21:09:09;4.63;;;2.67;;
73893;SDS011;62699;50.534;12.784;2022-08-16T21:20:15;5.65;;;3.40;;
73893;SDS011;62699;50.534;12.784;2022-08-16T21:25:37;5.88;;;3.20;;
73893;SDS011;62699;50.534;12.784;2022-08-16T21:30:59;4.40;;;3.00;;
73893;SDS011;62699;50.534;12.784;2022-08-16T21:42:11;6.40;;;3.30;;
73893;SDS011;62699;50.534;12.784;2022-08-16T21:47:36;7.05;;;4.13;;
73893;SDS011;62699;50.534;12.784;2022-08-16T21:53:12;6.20;;;3.15;;
73893;SDS011;62699;50.534;12.784;2022-08-16T21:58:33;6.30;;;3.60;;
73893;SDS011;62699;50.534;12.784;2022-08-16T22:04:09;6.60;;;3.25;;
73893;SDS011;62699;50.534;12.784;2022-08-16T22:09:29;6.05;;;4.00;;
73893;SDS011;62699;50.534;12.784;2022-08-16T22:14:48;8.18;;;4.57;;
73893;SDS011;62699;50.534;12.784;2022-08-16T22:20:08;6.43;;;3.22;;
73893;SDS011;62699;50.534;12.784;2022-08-16T22:25:43;6.47;;;3.35;;
73893;SDS011;62699;50.534;12.784;2022-08-16T22:31:04;6.57;;;4.05;;
73893;SDS011;62699;50.534;12.784;2022-08-16T22:36:24;5.38;;;3.03;;
73893;SDS011;62699;50.534;12.784;2022-08-16T22:41:52;5.70;;;3.25;;
73893;SDS011;62699;50.534;12.784;2022-08-16T22:47:14;5.90;;;3.10;;
73893;SDS011;62699;50.534;12.784;2022-08-16T22:52:34;5.53;;;3.40;;
73893;SDS011;62699;50.534;12.784;2022-08-16T22:57:55;6.95;;;3.33;;
73893;SDS011;62699;50.534;12.784;2022-08-16T23:03:16;6.18;;;2.97;;
73893;SDS011;62699;50.534;12.784;2022-08-16T23:08:36;4.88;;;2.90;;
73893;SDS011;62699;50.534;12.784;2022-08-16T23:13:57;5.20;;;3.13;;
73893;SDS011;62699;50.534;12.784;2022-08-16T23:19:16;6.28;;;3.28;;
73893;SDS011;62699;50.534;12.784;2022-08-16T23:24:36;4.07;;;2.65;;
73893;SDS011;62699;50.534;12.784;2022-08-16T23:29:55;5.85;;;3.05;;
73893;SDS011;62699;50.534;12.784;2022-08-16T23:35:17;6.30;;;3.67;;
73893;SDS011;62699;50.534;12.784;2022-08-16T23:40:38;7.38;;;4.38;;
73893;SDS011;62699;50.534;12.784;2022-08-16T23:46:02;7.15;;;4.35;;
73893;SDS011;62699;50.534;12.784;2022-08-16T23:51:24;8.02;;;4.95;;
73893;SDS011;62699;50.534;12.784;2022-08-16T23:56:43;6.63;;;4.10;;
